Time;durP1;ratioP1;P1;durP2;ratioP2;P2;SDS_P1;SDS_P2;PMS_P1;PMS_P2;Temp;Humidity;BMP_temperature;BMP_pressure;BME280_temperature;BME280_humidity;BME280_pressure;Samples;Min_cycle;Max_cycle;Signal;HPM_P1;HPM_P2
2024/03/18 00:01:37;;;;;;;8.77;3.35;;;11.30;62.80;;;;;;4963551;29;20103;-76
2024/03/18 00:04:25;;;;;;;7.72;2.85;;;11.30;62.80;;;;;;4961636;29;20046;-82
2024/03/18 00:07:10;;;;;;;9.85;2.67;;;11.30;62.80;;;;;;4974827;28;20058;-78
2024/03/18 00:09:55;;;;;;;9.65;3.78;;;11.20;62.70;;;;;;4963428;28;20240;-77
2024/03/18 00:12:43;;;;;;;7.32;2.58;;;11.20;62.70;;;;;;4963257;28;20046;-84
2024/03/18 00:15:28;;;;;;;10.02;2.85;;;11.20;62.80;;;;;;4956919;29;20155;-76
2024/03/18 00:18:13;;;;;;;7.25;2.80;;;11.10;62.60;;;;;;4957675;28;20070;-78
2024/03/18 00:20:58;;;;;;;8.60;3.10;;;11.10;62.60;;;;;;4948824;28;20131;-79
2024/03/18 00:23:43;;;;;;;5.45;2.25;;;11.10;62.80;;;;;;4934056;29;20113;-77
2024/03/18 00:26:28;;;;;;;6.63;2.88;;;11.00;62.60;;;;;;4933136;28;20307;-76
2024/03/18 00:29:13;;;;;;;9.98;2.63;;;11.00;62.60;;;;;;4938929;28;20065;-76
2024/03/18 00:31:57;;;;;;;8.52;2.95;;;11.00;62.70;;;;;;4930404;28;20077;-79
2024/03/18 00:34:58;;;;;;;8.48;3.08;;;11.00;62.70;;;;;;4929747;29;20045;-76
2024/03/18 00:37:43;;;;;;;7.40;2.88;;;10.90;62.60;;;;;;4928170;28;20678;-76
2024/03/18 00:40:28;;;;;;;9.82;3.17;;;10.90;62.60;;;;;;4922919;29;20035;-79
2024/03/18 00:43:13;;;;;;;5.18;3.40;;;10.80;62.50;;;;;;4917401;29;20051;-76
2024/03/18 00:45:58;;;;;;;4.57;2.10;;;10.80;62.60;;;;;;4914090;28;20163;-76
2024/03/18 00:48:42;;;;;;;6.40;2.58;;;10.70;62.40;;;;;;4915995;29;20043;-82
2024/03/18 00:51:28;;;;;;;6.72;2.75;;;10.70;62.50;;;;;;4920323;29;20070;-81
2024/03/18 00:54:12;;;;;;;9.02;2.97;;;10.60;62.30;;;;;;4921057;29;20098;-83
2024/03/18 00:56:57;;;;;;;7.07;2.20;;;10.60;62.40;;;;;;4941668;28;20539;-81
2024/03/18 00:59:42;;;;;;;10.10;2.97;;;10.60;62.50;;;;;;4940472;29;20038;-77
2024/03/18 01:02:27;;;;;;;8.27;2.55;;;10.50;62.40;;;;;;4943772;28;20521;-76
2024/03/18 01:05:11;;;;;;;5.72;2.33;;;10.50;62.40;;;;;;4949900;28;20089;-77
2024/03/18 01:07:56;;;;;;;4.93;1.98;;;10.40;62.30;;;;;;4941052;28;20540;-75
2024/03/18 01:10:41;;;;;;;9.13;2.17;;;10.40;62.40;;;;;;4939059;28;20069;-79
2024/03/18 01:13:31;;;;;;;7.65;2.35;;;10.30;62.30;;;;;;4931779;28;20165;-76
2024/03/18 01:16:17;;;;;;;5.47;2.33;;;10.30;62.40;;;;;;4961530;28;20038;-76
2024/03/18 01:19:02;;;;;;;5.68;2.00;;;10.30;62.40;;;;;;4956588;28;20055;-78
2024/03/18 01:21:46;;;;;;;6.38;1.95;;;10.20;62.20;;;;;;4938348;28;20071;-78
2024/03/18 01:24:32;;;;;;;6.20;2.10;;;10.20;62.20;;;;;;4941998;28;20178;-77
2024/03/18 01:27:16;;;;;;;4.35;2.05;;;10.20;62.20;;;;;;4939561;29;20077;-77
2024/03/18 01:30:01;;;;;;;4.88;2.00;;;10.10;62.10;;;;;;4938839;29;20054;-77
2024/03/18 01:32:46;;;;;;;7.13;1.83;;;10.10;62.10;;;;;;4952234;28;20057;-76
2024/03/18 01:35:33;;;;;;;6.30;2.60;;;10.10;62.10;;;;;;4934028;29;20047;-78
2024/03/18 01:38:18;;;;;;;7.70;2.20;;;10.00;62.00;;;;;;4955717;28;20062;-77
2024/03/18 01:41:03;;;;;;;3.80;1.50;;;10.00;62.00;;;;;;4948750;28;20090;-78
2024/03/18 01:43:49;;;;;;;4.68;1.92;;;10.00;62.10;;;;;;4955876;28;20146;-80
2024/03/18 01:46:34;;;;;;;3.30;1.55;;;10.00;62.10;;;;;;4954782;28;20393;-76
2024/03/18 01:49:18;;;;;;;5.47;1.80;;;9.90;62.00;;;;;;4954771;28;20046;-78
2024/03/18 01:52:03;;;;;;;4.40;1.88;;;9.90;62.10;;;;;;4943113;28;20448;-77
2024/03/18 01:54:48;;;;;;;4.78;2.17;;;9.80;61.90;;;;;;4940945;28;20090;-78
2024/03/18 01:57:33;;;;;;;6.20;2.00;;;9.80;62.00;;;;;;4944255;28;20127;-76
2024/03/18 02:00:32;;;;;;;4.60;2.00;;;9.80;62.10;;;;;;4944245;28;20050;-77
2024/03/18 02:03:23;;;;;;;7.75;2.22;;;9.70;61.90;;;;;;4960437;28;20077;-77
2024/03/18 02:06:08;;;;;;;5.38;2.20;;;9.70;61.90;;;;;;4950037;28;20087;-77
2024/03/18 02:08:53;;;;;;;4.68;2.33;;;9.70;62.00;;;;;;4950959;29;20066;-78
2024/03/18 02:11:37;;;;;;;6.40;2.55;;;9.70;62.00;;;;;;4965497;28;20084;-82
2024/03/18 02:14:23;;;;;;;7.00;2.00;;;9.60;61.90;;;;;;4945241;29;20290;-87
2024/03/18 02:17:08;;;;;;;6.25;1.80;;;9.60;61.90;;;;;;4957426;28;20037;-76
2024/03/18 02:19:52;;;;;;;4.07;1.85;;;9.60;61.90;;;;;;4949290;28;20391;-76
2024/03/18 02:22:38;;;;;;;4.25;1.70;;;9.60;61.90;;;;;;4941816;28;20111;-78
2024/03/18 02:25:22;;;;;;;8.75;2.25;;;9.50;61.70;;;;;;4947045;28;20065;-76
2024/03/18 02:28:08;;;;;;;8.32;1.95;;;9.50;61.80;;;;;;4934807;28;20031;-76
2024/03/18 02:30:53;;;;;;;5.72;1.88;;;9.50;61.80;;;;;;4948705;28;20038;-78
2024/03/18 02:33:39;;;;;;;3.05;1.52;;;9.50;61.80;;;;;;4933313;29;20095;-77
2024/03/18 02:36:24;;;;;;;3.05;1.42;;;9.40;61.70;;;;;;4944297;28;20106;-77
2024/03/18 02:39:11;;;;;;;4.70;2.08;;;9.40;61.70;;;;;;4944255;28;20248;-76
2024/03/18 02:41:55;;;;;;;4.47;1.45;;;9.30;61.60;;;;;;4954268;28;20547;-77
2024/03/18 02:44:40;;;;;;;7.10;2.60;;;9.30;61.60;;;;;;4973836;28;20062;-76
2024/03/18 02:47:25;;;;;;;4.35;1.80;;;9.30;61.70;;;;;;4957404;28;20109;-77
2024/03/18 02:50:11;;;;;;;7.70;1.90;;;9.30;61.70;;;;;;4948666;28;20130;-76
2024/03/18 02:52:55;;;;;;;3.65;2.00;;;9.20;61.60;;;;;;4959952;28;20039;-80
2024/03/18 02:55:40;;;;;;;4.15;1.67;;;9.20;61.60;;;;;;4943335;28;20094;-77
2024/03/18 02:58:25;;;;;;;3.47;1.42;;;9.10;61.50;;;;;;4950146;28;20085;-76
2024/03/18 03:01:10;;;;;;;4.53;1.75;;;9.10;61.50;;;;;;4955544;28;20301;-77
2024/03/18 03:03:55;;;;;;;4.63;1.48;;;9.10;61.50;;;;;;4949671;28;20042;-77
2024/03/18 03:06:40;;;;;;;6.05;2.10;;;9.10;61.60;;;;;;4941601;28;20331;-76
2024/03/18 03:09:25;;;;;;;3.55;1.65;;;9.10;61.60;;;;;;4963578;28;20093;-79
2024/03/18 03:12:09;;;;;;;6.53;2.00;;;9.00;61.50;;;;;;4964210;28;20239;-76
2024/03/18 03:14:54;;;;;;;4.18;1.60;;;9.00;61.50;;;;;;4956242;29;20108;-75
2024/03/18 03:17:39;;;;;;;3.45;1.67;;;9.00;61.50;;;;;;4947515;28;20054;-76
2024/03/18 03:20:30;;;;;;;6.05;1.83;;;9.00;61.50;;;;;;4942369;28;20428;-76
2024/03/18 03:23:15;;;;;;;2.75;1.40;;;9.00;61.50;;;;;;4944720;28;20054;-77
2024/03/18 03:25:59;;;;;;;5.47;2.33;;;8.90;61.40;;;;;;4937042;28;20304;-77
2024/03/18 03:28:45;;;;;;;8.40;2.10;;;8.90;61.40;;;;;;4946527;28;20073;-75
2024/03/18 03:31:30;;;;;;;3.60;2.08;;;8.80;61.20;;;;;;4949347;28;20053;-76
2024/03/18 03:34:15;;;;;;;4.75;1.65;;;8.80;61.30;;;;;;4951575;29;20077;-80
2024/03/18 03:37:00;;;;;;;4.28;1.83;;;8.80;61.30;;;;;;4956099;28;20097;-76
2024/03/18 03:39:45;;;;;;;4.53;1.77;;;8.80;61.40;;;;;;4945617;29;20053;-76
2024/03/18 03:42:29;;;;;;;6.68;1.52;;;8.80;61.40;;;;;;4938250;28;20063;-77
2024/03/18 03:45:14;;;;;;;4.25;1.90;;;8.70;61.30;;;;;;4944063;28;20557;-76
2024/03/18 03:48:00;;;;;;;5.57;2.50;;;8.80;61.50;;;;;;4959406;28;20099;-78
2024/03/18 03:50:45;;;;;;;6.00;2.15;;;8.80;61.50;;;;;;4951120;28;20039;-76
2024/03/18 03:53:29;;;;;;;7.07;1.85;;;8.70;61.40;;;;;;4948764;28;20093;-76
2024/03/18 03:56:14;;;;;;;5.05;1.85;;;8.80;61.60;;;;;;4925351;28;20159;-77
2024/03/18 03:59:03;;;;;;;3.95;1.60;;;8.80;61.60;;;;;;4912288;29;20468;-77
2024/03/18 04:01:48;;;;;;;3.95;1.63;;;8.80;61.60;;;;;;4923772;29;20042;-75
2024/03/18 04:04:32;;;;;;;3.65;1.55;;;8.80;61.60;;;;;;4938164;28;20473;-77
2024/03/18 04:07:23;;;;;;;4.40;1.60;;;8.80;61.60;;;;;;4929498;29;20589;-85
2024/03/18 04:10:09;;;;;;;6.55;2.13;;;8.80;61.60;;;;;;4935234;29;20508;-77
2024/03/18 04:12:54;;;;;;;3.35;1.67;;;8.80;61.60;;;;;;4923815;29;20046;-79
2024/03/18 04:15:39;;;;;;;4.80;1.90;;;8.80;61.60;;;;;;4919986;29;20047;-76
2024/03/18 04:18:24;;;;;;;4.25;1.92;;;8.80;61.60;;;;;;4931890;28;20107;-77
2024/03/18 04:21:09;;;;;;;6.80;1.35;;;8.80;61.60;;;;;;4918377;29;20416;-77
2024/03/18 04:23:54;;;;;;;3.80;1.73;;;8.80;61.60;;;;;;4936713;28;20054;-77
2024/03/18 04:26:40;;;;;;;5.65;1.60;;;8.90;61.80;;;;;;4930466;29;20441;-77
2024/03/18 04:29:24;;;;;;;3.55;1.63;;;8.80;61.60;;;;;;4930149;29;20042;-78
2024/03/18 04:32:10;;;;;;;2.90;1.40;;;8.90;61.80;;;;;;4932440;28;20106;-76
2024/03/18 04:34:54;;;;;;;4.63;2.53;;;8.80;61.60;;;;;;4918911;28;20055;-78
2024/03/18 04:37:46;;;;;;;5.20;2.00;;;8.90;61.80;;;;;;4913301;29;20253;-77
2024/03/18 04:40:31;;;;;;;2.47;1.40;;;8.90;61.80;;;;;;4913885;29;20102;-77
2024/03/18 04:43:21;;;;;;;4.88;1.60;;;8.90;61.90;;;;;;4933090;28;20115;-76
2024/03/18 04:46:07;;;;;;;3.15;1.92;;;8.90;61.90;;;;;;4934522;28;20050;-80
2024/03/18 04:48:51;;;;;;;6.82;1.98;;;8.90;61.90;;;;;;4918556;29;20650;-83
2024/03/18 04:51:36;;;;;;;5.78;1.98;;;8.90;61.90;;;;;;4918340;28;20130;-77
2024/03/18 04:54:21;;;;;;;2.63;1.25;;;8.90;62.00;;;;;;4933933;28;20397;-77
2024/03/18 04:57:05;;;;;;;6.97;1.90;;;8.90;62.00;;;;;;4917184;29;20189;-80
2024/03/18 04:59:50;;;;;;;3.10;1.70;;;8.90;62.00;;;;;;4919155;29;20240;-81
2024/03/18 05:02:40;;;;;;;3.80;1.77;;;8.90;62.10;;;;;;4907273;29;20058;-76
2024/03/18 05:05:24;;;;;;;3.05;1.40;;;8.90;62.10;;;;;;4915396;29;20569;-76
2024/03/18 05:08:09;;;;;;;5.55;1.70;;;8.90;62.10;;;;;;4929224;29;20087;-77
2024/03/18 05:10:56;;;;;;;7.38;1.80;;;9.00;62.30;;;;;;4929420;28;20051;-77
2024/03/18 05:13:41;;;;;;;2.22;1.80;;;9.00;62.40;;;;;;4914592;29;20042;-76
2024/03/18 05:16:27;;;;;;;3.67;1.45;;;9.00;62.40;;;;;;4914887;29;20221;-76
2024/03/18 05:19:12;;;;;;;7.50;1.80;;;9.00;62.40;;;;;;4929244;28;20494;-80
2024/03/18 05:21:56;;;;;;;2.83;1.65;;;9.00;62.90;;;;;;4919246;29;20200;-76
2024/03/18 05:24:50;;;;;;;4.97;1.88;;;9.00;62.40;;;;;;4920800;29;20123;-83
2024/03/18 05:27:35;;;;;;;5.65;1.50;;;9.10;62.70;;;;;;4928331;28;20483;-77
2024/03/18 05:30:20;;;;;;;4.53;1.73;;;9.10;62.60;;;;;;4917669;28;20082;-75
2024/03/18 05:33:06;;;;;;;6.90;2.20;;;9.10;62.60;;;;;;4912967;29;20123;-79
2024/03/18 05:35:52;;;;;;;6.25;1.60;;;9.10;62.70;;;;;;4928495;28;20335;-79
2024/03/18 05:38:36;;;;;;;5.22;1.75;;;9.10;62.70;;;;;;4916201;28;20050;-76
2024/03/18 05:41:21;;;;;;;4.28;1.80;;;9.20;62.90;;;;;;4916864;29;20038;-78
2024/03/18 05:44:06;;;;;;;4.50;1.52;;;9.20;62.90;;;;;;4917776;29;20055;-76
2024/03/18 05:46:51;;;;;;;4.60;1.70;;;9.20;62.90;;;;;;4912676;29;20106;-77
2024/03/18 05:49:36;;;;;;;4.97;1.98;;;9.20;63.00;;;;;;4909728;29;20090;-76
2024/03/18 05:52:23;;;;;;;6.28;1.92;;;9.30;63.20;;;;;;4924608;29;20136;-77
2024/03/18 05:55:08;;;;;;;3.78;1.50;;;9.30;63.20;;;;;;4919146;29;20047;-84
2024/03/18 05:57:54;;;;;;;4.60;1.90;;;9.30;63.20;;;;;;4934007;28;20055;-77
2024/03/18 06:00:39;;;;;;;4.60;1.50;;;9.30;63.20;;;;;;4916694;29;20051;-77
2024/03/18 06:03:27;;;;;;;7.15;2.78;;;9.30;63.20;;;;;;4918785;29;20671;-76
2024/03/18 06:06:14;;;;;;;4.15;2.22;;;9.30;63.20;;;;;;4930890;28;20248;-76
2024/03/18 06:09:03;;;;;;;7.25;1.98;;;9.40;63.40;;;;;;4921670;29;20643;-78
2024/03/18 06:11:49;;;;;;;2.85;1.27;;;9.40;63.30;;;;;;4927449;28;20103;-83
2024/03/18 06:14:34;;;;;;;4.25;1.88;;;9.40;63.30;;;;;;4938821;29;20067;-78
2024/03/18 06:17:18;;;;;;;5.47;1.60;;;9.40;63.30;;;;;;4939805;28;20091;-78
2024/03/18 06:20:04;;;;;;;4.47;1.48;;;9.40;63.30;;;;;;4953031;29;20077;-75
2024/03/18 06:22:49;;;;;;;5.22;1.90;;;9.40;63.30;;;;;;4961466;28;20034;-84
2024/03/18 06:28:37;;;;;;;3.30;1.50;;;9.40;63.40;;;;;;4950609;29;20384;-78
2024/03/18 06:31:26;;;;;;;3.35;1.50;;;9.40;63.40;;;;;;4943785;29;20067;-76
2024/03/18 06:34:11;;;;;;;4.25;1.88;;;9.40;63.40;;;;;;4925785;29;20067;-81
2024/03/18 06:36:56;;;;;;;4.57;1.42;;;9.40;63.40;;;;;;4924899;28;20426;-79
2024/03/18 06:39:44;;;;;;;5.43;1.63;;;9.40;63.40;;;;;;4919243;29;20152;-83
2024/03/18 06:42:29;;;;;;;4.65;1.38;;;9.40;63.40;;;;;;4916078;29;20095;-83
2024/03/18 06:45:14;;;;;;;3.53;1.52;;;9.40;63.40;;;;;;4920692;28;20071;-76
2024/03/18 06:48:03;;;;;;;4.70;1.50;;;9.40;63.80;;;;;;4923892;29;20720;-76
2024/03/18 06:50:48;;;;;;;5.70;1.85;;;9.50;64.40;;;;;;4916305;29;20051;-75
2024/03/18 06:53:33;;;;;;;11.85;5.40;;;9.70;65.10;;;;;;4922076;29;20122;-79
2024/03/18 06:56:18;;;;;;;12.93;5.75;;;9.80;65.70;;;;;;4925218;28;20124;-77
2024/03/18 06:59:06;;;;;;;7.97;4.25;;;10.00;66.40;;;;;;4932852;29;20038;-77
2024/03/18 07:01:51;;;;;;;8.57;3.78;;;10.30;67.00;;;;;;4930685;29;20480;-78
2024/03/18 07:04:36;;;;;;;5.55;3.40;;;10.40;67.10;;;;;;4930695;28;20416;-77
2024/03/18 07:07:24;;;;;;;6.55;3.40;;;10.60;67.40;;;;;;4926255;29;20129;-78
2024/03/18 07:10:10;;;;;;;4.93;3.13;;;10.70;67.60;;;;;;4914175;29;20564;-78
2024/03/18 07:12:55;;;;;;;9.88;3.30;;;10.80;67.70;;;;;;4930741;28;20580;-77
2024/03/18 07:15:39;;;;;;;8.32;3.42;;;10.80;67.80;;;;;;4911754;29;20516;-76
2024/03/18 07:18:24;;;;;;;8.40;2.40;;;10.90;67.90;;;;;;4940046;29;20074;-77
2024/03/18 07:21:13;;;;;;;4.07;2.33;;;10.90;67.90;;;;;;4925176;29;20598;-77
2024/03/18 07:24:01;;;;;;;4.45;2.42;;;11.00;68.20;;;;;;4929929;29;20457;-81
2024/03/18 07:26:46;;;;;;;4.32;2.38;;;11.00;68.10;;;;;;4930278;29;20070;-78
2024/03/18 07:29:30;;;;;;;5.43;2.17;;;11.10;68.30;;;;;;4939183;29;20075;-77
2024/03/18 07:32:15;;;;;;;6.57;2.63;;;11.10;68.20;;;;;;4944507;28;20193;-76
2024/03/18 07:35:00;;;;;;;3.95;2.03;;;11.20;68.40;;;;;;4926479;29;20166;-78
2024/03/18 07:37:45;;;;;;;3.95;1.92;;;11.30;68.50;;;;;;4926938;29;20067;-78
2024/03/18 07:40:30;;;;;;;4.53;2.33;;;11.40;68.50;;;;;;4926802;29;20047;-80
2024/03/18 07:43:15;;;;;;;6.00;1.90;;;11.50;68.60;;;;;;4957582;28;20034;-77
2024/03/18 07:46:00;;;;;;;4.22;2.08;;;11.60;68.60;;;;;;4930780;29;20451;-78
2024/03/18 07:48:47;;;;;;;4.22;1.67;;;11.70;69.20;;;;;;4940845;28;20098;-83
2024/03/18 07:51:31;;;;;;;3.58;1.40;;;11.80;68.80;;;;;;4928981;29;20118;-77
2024/03/18 07:54:16;;;;;;;4.68;1.70;;;11.80;68.70;;;;;;4945615;28;20091;-80
2024/03/18 07:57:01;;;;;;;2.92;1.23;;;11.90;68.70;;;;;;4924276;29;20062;-79
2024/03/18 07:59:46;;;;;;;4.20;1.33;;;12.10;69.00;;;;;;4928910;28;20179;-85
2024/03/18 08:02:31;;;;;;;3.40;1.58;;;12.20;69.00;;;;;;4937323;29;20497;-83
2024/03/18 08:05:19;;;;;;;3.50;1.70;;;12.30;69.00;;;;;;4948854;28;20047;-77
2024/03/18 08:08:07;;;;;;;4.93;1.52;;;12.40;69.00;;;;;;4928030;29;20067;-82
2024/03/18 08:10:51;;;;;;;2.83;1.75;;;12.50;69.00;;;;;;4929216;28;20054;-83
2024/03/18 08:13:36;;;;;;;4.35;2.17;;;12.60;69.10;;;;;;4943858;29;20569;-77
2024/03/18 08:16:21;;;;;;;3.63;2.00;;;12.70;69.10;;;;;;4945160;28;20038;-80
2024/03/18 08:19:07;;;;;;;2.63;1.30;;;12.70;69.10;;;;;;4935373;28;20674;-78
2024/03/18 08:21:51;;;;;;;5.68;1.73;;;12.80;69.10;;;;;;4930217;29;20047;-79
2024/03/18 08:24:36;;;;;;;3.47;1.60;;;12.80;69.00;;;;;;4936408;29;20100;-82
2024/03/18 08:27:29;;;;;;;3.00;1.42;;;12.90;69.10;;;;;;4925632;29;20328;-79
2024/03/18 08:30:20;;;;;;;1.55;1.08;;;13.00;69.20;;;;;;4924430;29;20050;-78
2024/03/18 08:33:09;;;;;;;3.88;1.13;;;13.00;69.10;;;;;;4922844;29;20358;-78
2024/03/18 08:35:54;;;;;;;4.15;1.13;;;13.10;69.20;;;;;;4935355;29;20063;-79
2024/03/18 08:38:40;;;;;;;3.22;1.52;;;13.10;69.10;;;;;;4934857;28;20087;-79
2024/03/18 08:41:25;;;;;;;1.52;0.93;;;13.20;69.20;;;;;;4939094;28;20665;-81
2024/03/18 08:44:10;;;;;;;3.67;1.60;;;13.30;69.20;;;;;;4923057;29;20070;-78
2024/03/18 08:46:55;;;;;;;2.45;0.90;;;13.40;69.30;;;;;;4937979;28;20116;-78
2024/03/18 08:49:40;;;;;;;4.80;1.08;;;13.50;69.30;;;;;;4944860;29;20103;-78
2024/03/18 08:52:25;;;;;;;3.17;1.00;;;13.60;69.30;;;;;;4936137;29;20509;-79
2024/03/18 08:55:10;;;;;;;4.13;1.20;;;13.70;69.40;;;;;;4949386;28;20038;-77
2024/03/18 08:57:55;;;;;;;5.00;1.67;;;13.70;69.20;;;;;;4935693;28;20054;-77
2024/03/18 09:00:40;;;;;;;5.68;1.00;;;13.80;69.30;;;;;;4922465;28;20520;-79
2024/03/18 09:03:24;;;;;;;4.68;1.20;;;13.80;69.20;;;;;;4922408;29;20038;-78
2024/03/18 09:06:10;;;;;;;5.35;1.10;;;13.90;69.30;;;;;;4938610;28;20124;-81
2024/03/18 09:08:54;;;;;;;3.38;1.20;;;14.00;69.30;;;;;;4937511;28;20050;-81
2024/03/18 09:11:42;;;;;;;1.58;0.95;;;14.10;69.40;;;;;;4917553;28;20173;-84
2024/03/18 09:14:29;;;;;;;2.35;0.80;;;14.20;69.50;;;;;;4927183;29;20051;-84
2024/03/18 09:17:13;;;;;;;2.67;0.90;;;14.20;69.30;;;;;;4940923;28;20047;-78
2024/03/18 09:19:58;;;;;;;2.35;0.88;;;14.30;69.40;;;;;;4935344;28;20090;-78
2024/03/18 09:22:44;;;;;;;1.88;0.90;;;14.40;69.50;;;;;;4919346;29;20051;-81
2024/03/18 09:25:29;;;;;;;3.88;1.38;;;14.50;69.50;;;;;;4935584;29;20087;-78
2024/03/18 09:28:14;;;;;;;2.92;0.75;;;14.60;69.60;;;;;;4925312;28;20675;-79
2024/03/18 09:31:02;;;;;;;3.33;0.98;;;14.70;69.70;;;;;;4937960;28;20118;-78
2024/03/18 09:33:49;;;;;;;2.33;0.90;;;14.80;69.60;;;;;;4921358;29;20066;-80
2024/03/18 09:36:38;;;;;;;3.35;0.80;;;15.00;69.80;;;;;;4908494;28;20138;-79
2024/03/18 09:39:23;;;;;;;4.68;1.15;;;15.10;69.70;;;;;;4941672;29;20095;-88
2024/03/18 09:42:11;;;;;;;2.13;0.70;;;15.20;69.80;;;;;;4925032;29;20062;-81
2024/03/18 09:44:56;;;;;;;3.17;0.82;;;15.20;69.60;;;;;;4919892;28;20134;-78
2024/03/18 09:47:45;;;;;;;4.18;1.75;;;15.30;69.60;;;;;;4919087;29;20571;-79
2024/03/18 09:50:34;;;;;;;3.42;1.30;;;15.50;69.90;;;;;;4921987;29;20079;-80
2024/03/18 09:53:18;;;;;;;2.45;0.75;;;15.50;69.70;;;;;;4943867;28;20042;-78
2024/03/18 09:56:08;;;;;;;1.90;0.80;;;15.60;69.70;;;;;;4954729;28;20047;-80
2024/03/18 09:58:52;;;;;;;2.58;0.70;;;15.60;69.60;;;;;;4943621;28;20110;-79
2024/03/18 10:01:37;;;;;;;1.58;0.47;;;15.80;69.80;;;;;;4939574;28;20747;-84
2024/03/18 10:04:22;;;;;;;1.88;0.80;;;15.90;69.80;;;;;;4954005;28;20062;-82
2024/03/18 10:07:17;;;;;;;1.83;0.82;;;16.00;69.70;;;;;;4964834;28;20079;-79
2024/03/18 10:10:04;;;;;;;3.50;0.80;;;16.20;69.70;;;;;;4949377;28;20054;-78
2024/03/18 10:12:49;;;;;;;1.90;0.73;;;16.30;69.60;;;;;;4930743;28;20313;-84
2024/03/18 10:15:34;;;;;;;3.72;0.85;;;16.40;69.50;;;;;;4930501;28;20524;-79
2024/03/18 10:18:19;;;;;;;1.83;0.75;;;16.50;69.40;;;;;;4916505;29;20457;-79
2024/03/18 10:21:04;;;;;;;2.00;1.15;;;16.60;69.30;;;;;;4926142;29;20054;-79
2024/03/18 10:23:53;;;;;;;3.65;0.85;;;16.70;69.20;;;;;;4911552;29;20139;-82
2024/03/18 10:26:38;;;;;;;1.48;0.75;;;16.80;69.20;;;;;;4925338;29;20046;-80
2024/03/18 10:29:23;;;;;;;1.70;0.60;;;16.90;69.10;;;;;;4913496;29;20126;-80
2024/03/18 10:32:27;;;;;;;10.32;1.88;;;17.00;68.90;;;;;;4919398;28;20134;-86
2024/03/18 10:35:19;;;;;;;4.10;0.80;;;17.20;68.90;;;;;;4915728;29;20449;-81
2024/03/18 10:38:06;;;;;;;4.15;1.23;;;17.30;68.70;;;;;;4929343;29;20075;-84
2024/03/18 10:40:55;;;;;;;4.10;1.13;;;17.40;68.60;;;;;;4918654;29;20047;-81
2024/03/18 10:43:42;;;;;;;6.90;1.63;;;17.50;68.40;;;;;;4918658;28;20051;-82
2024/03/18 10:46:27;;;;;;;2.83;0.90;;;17.70;68.50;;;;;;4923543;29;20118;-80
2024/03/18 10:49:19;;;;;;;4.85;0.98;;;17.70;68.10;;;;;;4916833;29;20789;-80
2024/03/18 10:52:11;;;;;;;4.50;1.55;;;17.80;67.90;;;;;;4915430;28;20046;-81
2024/03/18 10:54:57;;;;;;;5.63;0.85;;;17.80;67.80;;;;;;4918772;29;20072;-80
2024/03/18 10:57:47;;;;;;;15.60;1.83;;;17.80;67.70;;;;;;4925658;29;20102;-84
2024/03/18 11:00:32;;;;;;;4.53;1.25;;;17.70;67.50;;;;;;4910883;29;20031;-80
2024/03/18 11:03:22;;;;;;;3.72;0.90;;;17.70;67.50;;;;;;4917709;28;20055;-79
2024/03/18 11:06:14;;;;;;;2.15;1.08;;;17.70;67.50;;;;;;4929834;28;20055;-82
2024/03/18 11:09:02;;;;;;;1.50;0.65;;;17.70;67.40;;;;;;4909447;29;20074;-79
2024/03/18 11:11:47;;;;;;;3.28;0.90;;;17.80;67.30;;;;;;4914814;28;20182;-79
2024/03/18 11:14:31;;;;;;;3.33;0.90;;;17.90;67.30;;;;;;4932994;29;20581;-82
2024/03/18 11:17:16;;;;;;;1.63;0.70;;;17.90;67.10;;;;;;4928345;29;20118;-84
2024/03/18 11:20:02;;;;;;;3.92;0.80;;;18.00;67.10;;;;;;4921087;29;20110;-80
2024/03/18 11:22:48;;;;;;;3.40;0.85;;;18.00;66.90;;;;;;4927586;28;20075;-79
2024/03/18 11:25:37;;;;;;;3.17;0.82;;;18.00;66.80;;;;;;4924012;29;20047;-81
2024/03/18 11:28:42;;;;;;;4.50;1.33;;;18.00;66.80;;;;;;4921616;29;20569;-84
2024/03/18 11:31:36;;;;;;;0.90;0.60;;;18.10;66.70;;;;;;4909695;29;20477;-80
2024/03/18 11:34:24;;;;;;;1.15;0.50;;;18.30;66.80;;;;;;4912572;29;20141;-80
2024/03/18 11:37:11;;;;;;;1.50;0.80;;;18.40;66.70;;;;;;4921091;29;20687;-80
2024/03/18 11:39:57;;;;;;;8.85;1.35;;;18.50;66.60;;;;;;4914328;28;20780;-80
2024/03/18 11:42:46;;;;;;;14.52;2.33;;;18.50;66.40;;;;;;4920948;29;20468;-82
2024/03/18 11:45:31;;;;;;;3.08;0.85;;;18.60;66.40;;;;;;4917854;29;20427;-80
2024/03/18 11:48:16;;;;;;;6.40;1.83;;;18.60;66.10;;;;;;4931239;29;20087;-83
2024/03/18 11:51:01;;;;;;;8.43;1.60;;;18.70;66.20;;;;;;4929337;28;20549;-80
2024/03/18 11:53:46;;;;;;;3.78;1.10;;;18.70;66.00;;;;;;4919233;29;20141;-78
2024/03/18 11:56:32;;;;;;;4.30;0.90;;;18.80;66.00;;;;;;4935050;29;20094;-79
2024/03/18 11:59:18;;;;;;;2.83;1.10;;;18.90;66.00;;;;;;4917064;28;20632;-80
2024/03/18 12:02:04;;;;;;;3.22;0.70;;;19.00;65.90;;;;;;4919800;29;20117;-85
2024/03/18 12:04:52;;;;;;;1.65;0.93;;;19.10;65.80;;;;;;4913208;29;20046;-83
2024/03/18 12:07:41;;;;;;;3.90;1.20;;;19.20;65.70;;;;;;4935393;29;20051;-81
2024/03/18 12:10:29;;;;;;;8.63;1.30;;;19.30;65.50;;;;;;4912853;29;20054;-79
2024/03/18 12:13:14;;;;;;;3.70;1.02;;;19.30;65.30;;;;;;4927945;28;20452;-80
2024/03/18 12:16:00;;;;;;;6.68;0.90;;;19.40;65.30;;;;;;4921540;29;20422;-79
2024/03/18 12:18:45;;;;;;;2.95;1.00;;;19.40;65.20;;;;;;4930783;28;20075;-84
2024/03/18 12:21:39;;;;;;;6.18;1.10;;;19.50;65.20;;;;;;4937065;28;20338;-80
2024/03/18 12:30:34;;;;;;;3.90;1.05;;;19.80;65.70;;;;;;4917449;29;20134;-82
2024/03/18 12:33:20;;;;;;;3.70;0.77;;;19.90;65.10;;;;;;4910581;29;20042;-80
2024/03/18 12:36:10;;;;;;;4.35;1.35;;;20.00;65.00;;;;;;4923811;29;20098;-79
2024/03/18 12:38:58;;;;;;;4.07;0.88;;;20.10;64.90;;;;;;4942260;29;20157;-79
2024/03/18 12:41:44;;;;;;;3.25;0.95;;;20.20;64.80;;;;;;4924965;28;20046;-82
2024/03/18 12:44:28;;;;;;;3.92;1.23;;;20.20;64.60;;;;;;4941650;29;20062;-79
2024/03/18 12:47:13;;;;;;;2.30;0.70;;;20.30;64.50;;;;;;4942982;28;20069;-79
2024/03/18 12:49:59;;;;;;;4.07;1.38;;;20.30;64.40;;;;;;4954323;28;20099;-80
2024/03/18 12:52:44;;;;;;;3.22;0.70;;;20.40;64.40;;;;;;4942487;28;20146;-79
2024/03/18 12:55:29;;;;;;;2.65;0.80;;;20.50;64.40;;;;;;4943886;29;20034;-83
2024/03/18 12:58:14;;;;;;;2.22;1.15;;;20.50;64.20;;;;;;4960131;28;20087;-81
2024/03/18 13:01:03;;;;;;;1.38;0.57;;;20.60;64.20;;;;;;4967950;28;20031;-80
2024/03/18 13:03:48;;;;;;;0.77;0.57;;;20.60;64.10;;;;;;4963947;28;20053;-79
2024/03/18 13:06:36;;;;;;;2.55;0.52;;;20.70;64.10;;;;;;4967691;28;20103;-81
2024/03/18 13:09:22;;;;;;;1.65;0.60;;;20.80;64.10;;;;;;4965512;28;20026;-86
2024/03/18 13:12:07;;;;;;;1.30;0.63;;;20.80;64.00;;;;;;4964723;28;20050;-83
2024/03/18 13:14:52;;;;;;;3.15;0.80;;;20.80;63.80;;;;;;4970511;28;20058;-80
2024/03/18 13:17:36;;;;;;;1.75;0.80;;;20.80;63.70;;;;;;4975084;28;20037;-80
2024/03/18 13:20:27;;;;;;;2.40;0.70;;;20.90;63.70;;;;;;4963589;28;20293;-82
2024/03/18 13:23:12;;;;;;;2.70;0.68;;;21.00;63.70;;;;;;4953589;28;20152;-80
2024/03/18 13:25:57;;;;;;;2.17;0.77;;;21.00;63.50;;;;;;4946523;28;20086;-80
2024/03/18 13:28:42;;;;;;;3.80;1.13;;;21.10;63.60;;;;;;4942072;28;20053;-84
2024/03/18 13:31:30;;;;;;;4.10;1.00;;;21.20;63.60;;;;;;4937395;29;20062;-81
2024/03/18 13:34:17;;;;;;;3.15;0.57;;;21.30;63.50;;;;;;4946420;28;20037;-82
2024/03/18 13:37:02;;;;;;;3.08;0.60;;;21.40;63.40;;;;;;4946341;29;20042;-78
2024/03/18 13:39:51;;;;;;;3.20;0.98;;;21.50;63.30;;;;;;4950820;29;20138;-80
2024/03/18 13:42:39;;;;;;;3.03;0.68;;;21.60;63.30;;;;;;4941464;28;20276;-78
2024/03/18 13:45:24;;;;;;;2.38;1.00;;;21.70;63.30;;;;;;4944347;28;20050;-79
2024/03/18 13:48:08;;;;;;;2.00;0.73;;;21.70;63.10;;;;;;4943003;28;20041;-81
2024/03/18 13:50:53;;;;;;;1.80;0.60;;;21.80;63.10;;;;;;4947967;28;20038;-81
2024/03/18 13:53:40;;;;;;;0.88;0.52;;;21.90;63.10;;;;;;4942363;28;20051;-94
2024/03/18 13:56:24;;;;;;;2.97;0.88;;;21.90;62.90;;;;;;4956960;28;20045;-77
2024/03/18 13:59:09;;;;;;;1.27;0.60;;;22.00;62.90;;;;;;4946146;28;20499;-83
2024/03/18 14:01:56;;;;;;;3.08;0.77;;;22.10;62.80;;;;;;4958088;28;20110;-82
2024/03/18 14:04:44;;;;;;;5.93;0.60;;;22.30;62.80;;;;;;4961923;28;20066;-81
2024/03/18 14:07:30;;;;;;;2.20;0.63;;;22.50;62.80;;;;;;4945579;29;20038;-79
2024/03/18 14:10:17;;;;;;;2.03;0.73;;;22.60;62.70;;;;;;4974787;28;20046;-79
2024/03/18 14:13:02;;;;;;;2.47;0.60;;;22.60;62.40;;;;;;4965029;28;20055;-79
2024/03/18 14:15:47;;;;;;;2.97;0.80;;;22.60;62.40;;;;;;4968081;28;20063;-79
2024/03/18 14:18:33;;;;;;;2.15;1.02;;;22.60;62.30;;;;;;4967424;28;20073;-79
2024/03/18 14:21:20;;;;;;;3.20;1.10;;;22.60;62.30;;;;;;4951767;29;20122;-86
2024/03/18 14:24:06;;;;;;;1.92;1.02;;;22.60;62.20;;;;;;4943866;29;20050;-82
2024/03/18 14:26:52;;;;;;;2.17;0.73;;;22.60;62.10;;;;;;4951077;28;20521;-81
2024/03/18 14:29:36;;;;;;;2.83;0.50;;;22.60;61.90;;;;;;4948366;29;20342;-82
2024/03/18 14:32:22;;;;;;;2.50;0.68;;;22.60;61.80;;;;;;4944724;28;20614;-80
2024/03/18 14:35:10;;;;;;;2.90;0.65;;;22.70;61.80;;;;;;4952697;28;20052;-82
2024/03/18 14:37:56;;;;;;;1.88;1.00;;;22.70;61.50;;;;;;4947034;29;20063;-82